createdAt,value
2023-04-29T00:01:48.975Z,81.60
2023-04-29T00:04:17.331Z,81.70
2023-04-29T00:06:47.104Z,81.70
2023-04-29T00:09:15.178Z,81.60
2023-04-29T00:11:43.434Z,81.80
2023-04-29T00:14:11.783Z,81.70
2023-04-29T00:16:39.884Z,81.70
2023-04-29T00:19:07.991Z,81.70
2023-04-29T00:21:36.070Z,81.60
2023-04-29T00:24:06.126Z,81.60
2023-04-29T00:26:34.996Z,81.60
2023-04-29T00:29:03.066Z,81.60
2023-04-29T00:31:32.861Z,81.60
2023-04-29T00:34:01.114Z,81.70
2023-04-29T00:36:29.450Z,81.60
2023-04-29T00:38:57.738Z,81.70
2023-04-29T00:41:27.280Z,81.70
2023-04-29T00:43:55.364Z,81.60
2023-04-29T00:46:23.487Z,81.50
2023-04-29T00:48:51.578Z,81.50
2023-04-29T00:51:23.947Z,81.60
2023-04-29T00:53:51.980Z,81.60
2023-04-29T00:56:21.047Z,81.50
2023-04-29T00:58:51.892Z,81.50
2023-04-29T01:01:20.472Z,81.50
2023-04-29T01:03:48.670Z,81.50
2023-04-29T01:06:24.177Z,81.60
2023-04-29T01:08:57.765Z,81.50
2023-04-29T01:11:26.152Z,81.50
2023-04-29T01:13:59.660Z,81.70
2023-04-29T01:16:31.842Z,81.50
2023-04-29T01:19:00.134Z,81.80
2023-04-29T01:21:28.237Z,81.80
2023-04-29T01:24:00.858Z,81.70
2023-04-29T01:26:28.911Z,81.70
2023-04-29T01:29:02.852Z,81.70
2023-04-29T01:31:33.020Z,81.70
2023-04-29T01:34:06.071Z,81.70
2023-04-29T01:36:42.878Z,81.60
2023-04-29T01:39:15.848Z,81.60
2023-04-29T01:41:45.230Z,81.50
2023-04-29T01:44:16.549Z,81.60
2023-04-29T01:46:45.226Z,81.60
2023-04-29T01:49:14.240Z,81.60
2023-04-29T01:51:42.416Z,81.50
2023-04-29T01:54:11.909Z,81.50
2023-04-29T01:56:40.200Z,81.50
2023-04-29T01:59:12.192Z,81.50
2023-04-29T02:01:40.213Z,81.60
2023-04-29T02:04:08.660Z,81.50
2023-04-29T02:06:36.783Z,81.60
2023-04-29T02:09:04.902Z,81.50
2023-04-29T02:11:34.546Z,81.50
2023-04-29T02:14:02.720Z,81.50
2023-04-29T02:16:30.883Z,81.60
2023-04-29T02:18:58.993Z,82.20
2023-04-29T02:21:27.179Z,81.80
2023-04-29T02:23:55.567Z,81.90
2023-04-29T02:26:23.767Z,81.80
2023-04-29T02:28:53.603Z,81.70
2023-04-29T02:31:21.656Z,81.50
2023-04-29T02:33:49.874Z,81.60
2023-04-29T02:36:18.314Z,81.80
2023-04-29T02:38:46.423Z,81.70
2023-04-29T02:41:18.160Z,81.80
2023-04-29T02:43:46.589Z,81.60
2023-04-29T02:46:16.443Z,81.50
2023-04-29T02:48:44.659Z,81.50
2023-04-29T02:51:13.040Z,81.40
2023-04-29T02:53:41.120Z,81.40
2023-04-29T02:56:09.218Z,81.50
2023-04-29T02:58:37.270Z,81.50
2023-04-29T03:01:05.899Z,81.70
2023-04-29T03:03:35.524Z,81.90
2023-04-29T03:06:04.653Z,81.60
2023-04-29T03:08:36.221Z,81.70
2023-04-29T03:11:04.544Z,81.70
2023-04-29T03:13:32.597Z,81.60
2023-04-29T03:16:01.497Z,81.50
2023-04-29T03:18:29.582Z,81.50
2023-04-29T03:20:59.433Z,81.40
2023-04-29T03:23:28.089Z,81.50
2023-04-29T03:25:56.841Z,81.40
2023-04-29T03:28:25.051Z,81.60
2023-04-29T03:30:53.305Z,81.40
2023-04-29T03:33:21.489Z,81.40
2023-04-29T03:35:55.818Z,81.50
2023-04-29T03:38:26.027Z,81.40
2023-04-29T03:40:54.035Z,81.30
2023-04-29T03:43:22.111Z,81.40
2023-04-29T03:45:50.302Z,81.60
2023-04-29T03:48:18.394Z,81.60
2023-04-29T03:50:46.481Z,81.70
2023-04-29T03:53:15.250Z,81.50
2023-04-29T03:55:44.704Z,81.40
2023-04-29T03:58:12.741Z,81.20
2023-04-29T04:00:40.857Z,81.50
2023-04-29T04:03:09.200Z,81.30
2023-04-29T04:05:37.434Z,81.40
2023-04-29T04:08:06.171Z,81.30
2023-04-29T04:10:34.206Z,81.50
2023-04-29T04:13:03.722Z,81.50
2023-04-29T04:15:31.859Z,81.30
2023-04-29T04:17:59.962Z,81.20
2023-04-29T04:20:28.113Z,81.40
2023-04-29T04:22:56.216Z,81.30
2023-04-29T04:25:24.339Z,81.30
2023-04-29T04:27:52.391Z,81.40
2023-04-29T04:30:21.931Z,81.40
2023-04-29T04:32:50.043Z,81.30
2023-04-29T04:35:18.294Z,81.30
2023-04-29T04:37:46.413Z,81.20
2023-04-29T04:40:15.044Z,81.20
2023-04-29T04:42:43.119Z,81.40
2023-04-29T04:45:11.958Z,81.40
2023-04-29T04:47:41.701Z,81.20
2023-04-29T04:50:10.352Z,81.20
2023-04-29T04:52:38.444Z,81.20
2023-04-29T04:55:07.125Z,81.30
2023-04-29T04:57:35.281Z,81.20
2023-04-29T05:00:05.219Z,81.20
2023-04-29T05:02:33.448Z,81.20
2023-04-29T05:05:03.050Z,81.10
2023-04-29T05:07:31.272Z,81.30
2023-04-29T05:09:59.736Z,81.10
2023-04-29T05:12:30.934Z,81.10
2023-04-29T05:14:59.174Z,81.20
2023-04-29T05:17:27.317Z,81.10
2023-04-29T05:19:55.457Z,81.10
2023-04-29T05:22:25.135Z,81.20
2023-04-29T05:24:54.350Z,81.10
2023-04-29T05:27:22.408Z,81.20
2023-04-29T05:29:50.787Z,81.10
2023-04-29T05:32:19.141Z,81.20
2023-04-29T05:34:47.269Z,81.10
2023-04-29T05:37:15.883Z,81.00
2023-04-29T05:39:45.405Z,81.00
2023-04-29T05:42:13.480Z,81.00
2023-04-29T05:44:41.635Z,81.00
2023-04-29T05:47:09.727Z,81.00
2023-04-29T05:49:37.821Z,81.00
2023-04-29T05:52:06.827Z,80.90
2023-04-29T05:54:35.337Z,81.00
2023-04-29T05:57:05.412Z,81.00
2023-04-29T05:59:33.750Z,80.90
2023-04-29T06:02:01.905Z,80.90
2023-04-29T06:04:30.205Z,80.80
2023-04-29T06:07:09.080Z,80.90
2023-04-29T06:09:37.209Z,80.90
2023-04-29T06:12:07.150Z,80.80
2023-04-29T06:14:35.325Z,81.00
2023-04-29T06:17:09.579Z,81.00
2023-04-29T06:19:38.017Z,80.80
2023-04-29T06:22:06.171Z,81.00
2023-04-29T06:24:34.203Z,80.90
2023-04-29T06:27:04.297Z,81.00
2023-04-29T06:29:33.763Z,81.00
2023-04-29T06:32:02.033Z,81.10
2023-04-29T06:34:30.170Z,80.80
2023-04-29T06:36:58.219Z,80.80
2023-04-29T06:39:26.293Z,81.00
2023-04-29T06:41:54.392Z,80.90
2023-04-29T06:44:22.520Z,80.80
2023-04-29T06:46:51.975Z,80.80
2023-04-29T06:49:20.034Z,80.80
2023-04-29T06:51:48.598Z,80.70
2023-04-29T06:54:16.773Z,80.80
2023-04-29T06:56:44.867Z,80.70
2023-04-29T06:59:13.680Z,80.70
2023-04-29T07:01:44.194Z,80.80
2023-04-29T07:04:14.403Z,80.80
2023-04-29T07:06:46.732Z,80.80
2023-04-29T07:09:15.076Z,80.60
2023-04-29T07:11:43.430Z,80.70
2023-04-29T07:14:11.606Z,80.70
2023-04-29T07:16:39.697Z,80.70
2023-04-29T07:19:07.818Z,80.50
2023-04-29T07:21:37.475Z,80.60
2023-04-29T07:24:06.535Z,80.50
2023-04-29T07:26:34.564Z,80.80
2023-04-29T07:29:08.592Z,80.70
2023-04-29T07:31:38.404Z,80.70
2023-04-29T07:34:06.709Z,80.60
2023-04-29T07:36:36.250Z,80.70
2023-04-29T07:39:05.010Z,80.60
2023-04-29T07:41:33.108Z,80.60
2023-04-29T07:44:01.213Z,80.50
2023-04-29T07:46:29.319Z,80.60
2023-04-29T07:48:58.392Z,80.60
2023-04-29T07:51:29.142Z,80.60
2023-04-29T07:53:58.885Z,80.50
2023-04-29T07:56:27.094Z,80.60
2023-04-29T07:58:55.753Z,80.50
2023-04-29T08:01:23.759Z,80.70
2023-04-29T08:03:52.105Z,80.40
2023-04-29T08:06:22.250Z,80.40
2023-04-29T08:08:50.593Z,80.50
2023-04-29T08:11:20.585Z,80.40
2023-04-29T08:13:49.441Z,80.40
2023-04-29T08:16:17.951Z,80.50
2023-04-29T08:18:56.315Z,80.50
2023-04-29T08:21:24.463Z,80.40
2023-04-29T08:23:53.592Z,80.30
2023-04-29T08:26:24.113Z,80.40
2023-04-29T08:28:52.288Z,80.40
2023-04-29T08:31:20.691Z,80.40
2023-04-29T08:33:48.870Z,80.30
2023-04-29T08:36:19.572Z,80.40
2023-04-29T08:38:48.941Z,80.30
2023-04-29T08:41:17.019Z,80.50
2023-04-29T08:43:46.464Z,80.50
2023-04-29T08:46:14.642Z,80.40
2023-04-29T08:48:50.267Z,80.40
2023-04-29T08:51:18.408Z,80.40
2023-04-29T08:53:46.479Z,80.40
2023-04-29T08:56:17.436Z,80.30
2023-04-29T08:58:47.012Z,80.30
2023-04-29T09:01:15.158Z,80.40
2023-04-29T09:03:46.234Z,80.30
2023-04-29T09:06:14.469Z,80.30
2023-04-29T09:08:42.545Z,80.40
2023-04-29T09:11:11.917Z,80.30
2023-04-29T09:13:40.062Z,80.30
2023-04-29T09:16:13.454Z,80.40
2023-04-29T09:18:48.102Z,80.40
2023-04-29T09:21:19.069Z,80.20
2023-04-29T09:23:56.027Z,80.30
2023-04-29T09:26:24.244Z,80.30
2023-04-29T09:29:07.948Z,80.30
2023-04-29T09:31:38.708Z,80.30
2023-04-29T09:34:13.163Z,80.30
2023-04-29T09:36:44.247Z,80.30
2023-04-29T09:39:13.492Z,80.30
2023-04-29T09:41:42.675Z,80.20
2023-04-29T09:44:11.320Z,80.30
2023-04-29T09:46:40.866Z,80.30
2023-04-29T09:49:24.975Z,80.30
2023-04-29T09:51:56.876Z,80.40
2023-04-29T09:54:25.894Z,80.40
2023-04-29T09:56:54.429Z,80.20
2023-04-29T09:59:25.615Z,80.20
2023-04-29T10:01:55.756Z,80.30
2023-04-29T10:04:24.888Z,80.20
2023-04-29T10:06:55.201Z,80.40
2023-04-29T10:09:23.949Z,80.20
2023-04-29T10:11:53.326Z,80.20
2023-04-29T10:14:22.007Z,80.30
2023-04-29T10:16:51.028Z,80.50
2023-04-29T10:19:27.741Z,80.30
2023-04-29T10:21:56.545Z,80.30
2023-04-29T10:24:24.656Z,80.20
2023-04-29T10:26:53.568Z,80.30
2023-04-29T10:29:21.703Z,80.40
2023-04-29T10:31:52.979Z,80.20
2023-04-29T10:34:21.204Z,80.30
2023-04-29T10:36:50.962Z,80.20
2023-04-29T10:39:24.447Z,80.30
2023-04-29T10:41:52.484Z,80.20
2023-04-29T10:44:20.729Z,80.20
2023-04-29T10:46:48.844Z,80.20
2023-04-29T10:49:16.955Z,80.10
2023-04-29T10:51:45.888Z,80.30
2023-04-29T10:54:16.290Z,80.20
2023-04-29T10:56:45.474Z,80.30
2023-04-29T10:59:14.449Z,80.40
2023-04-29T11:01:44.396Z,80.10
2023-04-29T11:04:12.773Z,80.10
2023-04-29T11:06:48.668Z,80.20
2023-04-29T11:09:37.341Z,80.10
2023-04-29T11:12:06.248Z,80.10
2023-04-29T11:14:37.661Z,80.10
2023-04-29T11:17:09.958Z,80.10
2023-04-29T11:19:42.214Z,80.10
2023-04-29T11:22:12.921Z,80.00
2023-04-29T11:24:52.826Z,80.00
2023-04-29T11:27:23.027Z,80.00
2023-04-29T11:29:52.013Z,80.00
2023-04-29T11:32:22.827Z,80.00
2023-04-29T11:34:51.381Z,80.10
2023-04-29T11:37:23.585Z,80.10
2023-04-29T11:40:01.189Z,80.10
2023-04-29T11:42:32.168Z,80.10
2023-04-29T11:45:00.640Z,80.00
2023-04-29T11:47:29.971Z,80.00
2023-04-29T11:50:04.843Z,80.00
2023-04-29T11:52:32.963Z,80.00
2023-04-29T11:55:02.493Z,80.00
2023-04-29T11:57:30.624Z,80.00
2023-04-29T11:59:59.008Z,80.00
2023-04-29T12:02:31.515Z,80.00
2023-04-29T12:05:01.517Z,80.00
2023-04-29T12:07:30.238Z,80.00
2023-04-29T12:09:58.361Z,80.00
2023-04-29T12:12:28.460Z,80.00
2023-04-29T12:14:56.781Z,80.00
2023-04-29T12:17:25.329Z,80.00
2023-04-29T12:19:56.246Z,80.00
2023-04-29T12:22:24.378Z,80.00
2023-04-29T12:24:54.706Z,80.00
2023-04-29T12:27:22.989Z,80.00
2023-04-29T12:29:53.413Z,80.00
2023-04-29T12:32:24.805Z,80.00
2023-04-29T12:34:53.733Z,80.00
2023-04-29T12:37:22.891Z,80.00
2023-04-29T12:39:51.437Z,80.00
2023-04-29T12:42:19.588Z,80.00
2023-04-29T12:44:48.302Z,80.00
2023-04-29T12:47:17.994Z,80.00
2023-04-29T12:49:46.874Z,80.00
2023-04-29T12:52:14.999Z,80.00
2023-04-29T12:54:44.095Z,80.00
2023-04-29T12:57:12.487Z,80.00
2023-04-29T12:59:41.426Z,80.00
2023-04-29T13:02:10.063Z,80.00
2023-04-29T13:04:40.226Z,80.00
2023-04-29T13:07:08.527Z,80.00
2023-04-29T13:09:38.268Z,80.00
2023-04-29T13:12:09.512Z,80.00
2023-04-29T13:14:37.871Z,80.00
2023-04-29T13:17:06.442Z,80.00
2023-04-29T13:19:49.795Z,80.00
2023-04-29T13:22:26.536Z,80.00
2023-04-29T13:24:54.876Z,80.00
2023-04-29T13:27:23.307Z,80.00
2023-04-29T13:29:51.534Z,80.00
2023-04-29T13:34:52.573Z,80.00
2023-04-29T13:37:22.265Z,80.00
2023-04-29T13:39:56.845Z,80.00
2023-04-29T13:42:27.162Z,80.00
2023-04-29T13:44:57.311Z,80.00
2023-04-29T13:47:28.188Z,80.00
2023-04-29T13:50:40.176Z,80.00
2023-04-29T13:53:10.541Z,80.10
2023-04-29T13:56:47.602Z,80.10
2023-04-29T13:59:28.094Z,80.00
2023-04-29T14:04:00.579Z,80.10
2023-04-29T14:06:29.465Z,80.10
2023-04-29T14:09:00.560Z,80.00
2023-04-29T14:11:29.823Z,80.00
2023-04-29T14:13:58.064Z,80.10
2023-04-29T14:16:26.270Z,80.00
2023-04-29T14:18:54.336Z,80.10
2023-04-29T14:21:22.795Z,80.00
2023-04-29T14:23:51.039Z,80.10
2023-04-29T14:26:28.055Z,80.10
2023-04-29T14:28:58.441Z,80.00
2023-04-29T14:31:28.096Z,80.10
2023-04-29T14:33:56.914Z,80.00
2023-04-29T14:36:25.092Z,80.10
2023-04-29T14:38:53.274Z,80.10
2023-04-29T14:41:22.756Z,80.10
2023-04-29T14:43:53.951Z,80.10
2023-04-29T14:46:22.556Z,80.10
2023-04-29T14:48:50.875Z,80.10
2023-04-29T14:51:18.928Z,80.10
2023-04-29T14:53:46.990Z,80.10
2023-04-29T14:56:15.093Z,80.10
2023-04-29T14:58:44.559Z,80.10
2023-04-29T15:01:26.137Z,80.10
2023-04-29T15:03:54.756Z,80.10
2023-04-29T15:06:22.912Z,80.10
2023-04-29T15:08:51.128Z,80.10
2023-04-29T15:11:19.286Z,80.10
2023-04-29T15:13:48.707Z,80.10
2023-04-29T15:16:16.869Z,80.10
2023-04-29T15:18:45.826Z,80.10
2023-04-29T15:21:14.023Z,80.10
2023-04-29T15:23:42.146Z,80.10
2023-04-29T15:26:10.588Z,80.10
2023-04-29T15:28:38.768Z,80.10
2023-04-29T15:31:08.349Z,80.10
2023-04-29T15:33:36.772Z,80.10
2023-04-29T15:36:05.420Z,80.10
2023-04-29T15:38:33.548Z,80.10
2023-04-29T15:41:02.867Z,80.10
2023-04-29T15:43:31.843Z,80.10
2023-04-29T15:46:00.307Z,80.10
2023-04-29T15:48:29.782Z,80.10
2023-04-29T15:50:57.825Z,80.10
2023-04-29T15:53:25.952Z,80.10
2023-04-29T15:55:54.591Z,80.00
2023-04-29T15:58:22.739Z,80.10
2023-04-29T16:00:50.964Z,80.00
2023-04-29T16:03:19.354Z,80.10
2023-04-29T16:05:48.997Z,80.00
2023-04-29T16:08:17.052Z,80.10
2023-04-29T16:10:46.026Z,80.10
2023-04-29T16:13:14.079Z,80.00
2023-04-29T16:15:42.155Z,80.00
2023-04-29T16:18:10.626Z,80.00
2023-04-29T16:20:38.699Z,80.00
2023-04-29T16:23:08.253Z,80.00
2023-04-29T16:25:36.288Z,80.00
2023-04-29T16:28:04.353Z,80.00
2023-04-29T16:30:32.409Z,80.00
2023-04-29T16:33:00.615Z,80.00
2023-04-29T16:35:30.991Z,80.00
2023-04-29T16:37:59.273Z,80.00
2023-04-29T16:40:29.664Z,80.00
2023-04-29T16:42:57.915Z,80.00
2023-04-29T16:45:26.302Z,80.00
2023-04-29T16:47:54.648Z,80.00
2023-04-29T16:50:22.801Z,80.00
2023-04-29T16:52:50.842Z,80.00
2023-04-29T16:55:19.076Z,80.00
2023-04-29T16:57:48.499Z,80.00
2023-04-29T17:00:17.104Z,80.00
2023-04-29T17:02:47.432Z,80.00
2023-04-29T17:05:16.739Z,80.00
2023-04-29T17:07:44.839Z,80.00
2023-04-29T17:10:12.956Z,80.00
2023-04-29T17:12:51.308Z,80.00
2023-04-29T17:15:20.994Z,80.00
2023-04-29T17:17:49.302Z,80.00
2023-04-29T17:20:17.358Z,80.00
2023-04-29T17:22:45.477Z,80.00
2023-04-29T17:25:13.802Z,80.00
2023-04-29T17:27:42.256Z,80.00
2023-04-29T17:30:11.156Z,80.00
2023-04-29T17:32:44.610Z,80.00
2023-04-29T17:35:12.745Z,80.00
2023-04-29T17:37:40.888Z,80.00
2023-04-29T17:40:09.932Z,80.00
2023-04-29T17:42:37.994Z,80.00
2023-04-29T17:45:07.040Z,80.00
2023-04-29T17:47:41.102Z,80.00
2023-04-29T17:50:11.311Z,80.00
2023-04-29T17:52:39.534Z,80.00
2023-04-29T17:55:08.553Z,80.00
2023-04-29T17:57:38.066Z,80.00
2023-04-29T18:00:08.731Z,80.00
2023-04-29T18:02:37.244Z,80.00
2023-04-29T18:05:07.604Z,80.00
2023-04-29T18:07:37.191Z,80.00
2023-04-29T18:10:06.063Z,80.00
2023-04-29T18:12:34.234Z,80.00
2023-04-29T18:15:05.996Z,80.00
2023-04-29T18:17:34.292Z,80.00
2023-04-29T18:20:02.424Z,80.00
2023-04-29T18:22:30.467Z,80.00
2023-04-29T18:25:00.323Z,80.00
2023-04-29T18:27:28.546Z,79.90
2023-04-29T18:30:04.119Z,80.00
2023-04-29T18:32:32.203Z,80.00
2023-04-29T18:35:00.742Z,80.00
2023-04-29T18:37:28.959Z,80.00
2023-04-29T18:39:57.262Z,80.00
2023-04-29T18:42:27.052Z,79.90
2023-04-29T18:44:55.592Z,79.90
2023-04-29T18:47:23.853Z,79.90
2023-04-29T18:49:51.985Z,79.90
2023-04-29T18:52:36.308Z,79.90
2023-04-29T18:55:05.177Z,79.90
2023-04-29T18:57:34.695Z,79.90
2023-04-29T19:00:03.764Z,79.90
2023-04-29T19:02:31.981Z,79.90
2023-04-29T19:05:02.780Z,79.90
2023-04-29T19:07:30.974Z,79.90
2023-04-29T19:09:59.012Z,79.90
2023-04-29T19:12:27.303Z,79.90
2023-04-29T19:14:56.839Z,79.90
2023-04-29T19:17:27.129Z,79.90
2023-04-29T19:19:55.826Z,79.90
2023-04-29T19:22:24.177Z,79.90
2023-04-29T19:24:52.336Z,79.80
2023-04-29T19:27:20.589Z,79.90
2023-04-29T19:29:48.704Z,79.80
2023-04-29T19:32:20.660Z,79.80
2023-04-29T19:34:49.035Z,79.80
2023-04-29T19:37:17.197Z,79.90
2023-04-29T19:39:46.062Z,79.80
2023-04-29T19:42:17.176Z,79.80
2023-04-29T19:44:45.392Z,79.80
2023-04-29T19:47:13.548Z,79.80
2023-04-29T19:49:43.572Z,79.80
2023-04-29T19:52:11.816Z,79.80
2023-04-29T19:54:40.940Z,79.80
2023-04-29T19:57:09.077Z,79.80
2023-04-29T19:59:37.288Z,79.80
2023-04-29T20:02:05.720Z,79.80
2023-04-29T20:04:34.880Z,79.70
2023-04-29T20:07:04.348Z,79.70
2023-04-29T20:09:32.822Z,79.70
2023-04-29T20:12:02.707Z,79.70
2023-04-29T20:14:33.209Z,79.70
2023-04-29T20:17:01.952Z,79.70
2023-04-29T20:19:31.454Z,79.70
2023-04-29T20:21:59.554Z,79.70
2023-04-29T20:24:29.108Z,79.70
2023-04-29T20:26:57.388Z,79.70
2023-04-29T20:29:25.787Z,79.60
2023-04-29T20:34:49.631Z,79.60
2023-04-29T20:37:18.043Z,79.60
2023-04-29T20:39:47.612Z,79.60
2023-04-29T20:42:15.768Z,79.60
2023-04-29T20:44:44.054Z,79.50
2023-04-29T20:47:12.560Z,79.50
2023-04-29T20:49:40.724Z,79.50
2023-04-29T20:52:08.817Z,79.50
2023-04-29T20:54:37.001Z,79.50
2023-04-29T20:57:06.510Z,79.50
2023-04-29T20:59:34.921Z,79.30
2023-04-29T21:02:02.996Z,79.30
2023-04-29T21:04:31.153Z,79.30
2023-04-29T21:06:59.252Z,79.30
2023-04-29T21:09:27.378Z,79.30
2023-04-29T21:11:58.054Z,79.30
2023-04-29T21:14:28.350Z,79.30
2023-04-29T21:16:56.393Z,79.30
2023-04-29T21:19:24.503Z,79.30
2023-04-29T21:22:06.427Z,79.30
2023-04-29T21:24:34.512Z,79.30
2023-04-29T21:27:02.702Z,79.30
2023-04-29T21:29:34.647Z,79.10
2023-04-29T21:32:02.746Z,79.10
2023-04-29T21:34:30.873Z,79.10
2023-04-29T21:36:59.193Z,79.10
2023-04-29T21:39:27.256Z,79.10
2023-04-29T21:41:55.305Z,79.10
2023-04-29T21:44:23.412Z,79.00
2023-04-29T21:46:53.236Z,79.00
2023-04-29T21:49:21.490Z,79.00
2023-04-29T21:51:49.557Z,79.00
2023-04-29T21:54:17.621Z,79.00
2023-04-29T21:56:46.207Z,78.90
2023-04-29T21:59:14.314Z,78.90
2023-04-29T22:01:49.283Z,78.90
2023-04-29T22:04:19.180Z,78.90
2023-04-29T22:06:47.436Z,78.80
2023-04-29T22:09:16.280Z,78.80
2023-04-29T22:11:47.508Z,78.70
2023-04-29T22:14:15.592Z,78.70
2023-04-29T22:16:49.128Z,78.70
2023-04-29T22:19:18.654Z,78.70
2023-04-29T22:21:46.828Z,78.60
2023-04-29T22:24:14.917Z,78.60
2023-04-29T22:26:43.025Z,78.60
2023-04-29T22:29:11.476Z,78.60
2023-04-29T22:31:39.594Z,78.60
2023-04-29T22:34:07.714Z,78.60
2023-04-29T22:36:39.774Z,78.50
2023-04-29T22:39:07.874Z,78.50
2023-04-29T22:41:35.983Z,78.50
2023-04-29T22:44:12.808Z,78.50
2023-04-29T22:46:40.967Z,78.40
2023-04-29T22:49:09.051Z,78.40
2023-04-29T22:51:38.516Z,78.40
2023-04-29T22:54:06.660Z,78.30
2023-04-29T22:56:37.194Z,78.40
2023-04-29T22:59:05.304Z,78.40
2023-04-29T23:01:33.396Z,78.30
2023-04-29T23:04:07.083Z,78.30
2023-04-29T23:06:35.513Z,78.20
2023-04-29T23:09:05.149Z,78.20
2023-04-29T23:11:33.200Z,78.30
2023-04-29T23:14:01.275Z,78.20
2023-04-29T23:16:45.364Z,78.20
2023-04-29T23:19:13.469Z,78.10
2023-04-29T23:21:41.983Z,78.20
2023-04-29T23:24:11.512Z,78.10
2023-04-29T23:26:39.577Z,78.00
2023-04-29T23:29:07.670Z,78.10
2023-04-29T23:31:35.875Z,78.10
2023-04-29T23:34:04.018Z,78.00
2023-04-29T23:36:32.157Z,78.00
2023-04-29T23:39:00.651Z,78.10
2023-04-29T23:41:31.811Z,78.00
2023-04-29T23:44:01.286Z,78.00
2023-04-29T23:46:30.102Z,78.00
2023-04-29T23:48:58.194Z,78.00
2023-04-29T23:51:26.924Z,77.90
2023-04-29T23:53:54.983Z,78.00
2023-04-29T23:56:23.891Z,77.90
2023-04-29T23:58:53.394Z,77.90
